Nature

Herzliya Airport is located in the city of Herzliya at central Israel. The airport is mainly used by flight schools and for general aviation. It has no terminal.

AT EILAT AIRPORT YOU CAN FIND A SINGLE RUNWAY (11/29).

Scenery:

Sim Download Size Author
P3D & FSX LLHZ Herzliya 219.5MB Freeware Nis Tesler
P3D & FSX ICVFR Herzliya 22.8MB Freeware Chris Bell
X-Plane LLHZ – Herzliya Airport v1.0 7.63MB Freeware X-Plane.org

Charts:

File Name
General Aerodrome Chart
CVFR Entry / Exit Routes (CVFR)
CVFR Training Zones Chart
CVFR Helicopters Training Zones Chart
CVFR Traffic Pattrens Chart
Departure ATS Departure

METAR & TAF:

Available data for LLSD from the past hour
SDE DOV AIRPORT
Metar
LLSD 140550Z 14005KT 9999 FEW035 19/13 Q1010

05:50 UTC

Wind: 140° 5kt

Visibility: 9999 m

Sky: FEW 3500 ft

Temp: 19 deg C / 66.2 deg F

Dewpoint: 13 deg C / 55.4 deg F

Pressure: 1010 hPa

TAF
TAF LLSD 140514Z 1406/1506 15005KT CAVOK TEMPO 1406/1407 6000 TSRA FEW025CB BKN030 BECMG 1407/1409 24010KT 9999 SCT030 PROB40 1409/1414 6000 TSRA FEW025CB BKN030 BECMG 1414/1416 VRB03KT PROB40 1416/1506 21015G25KT 6000 TSRA FEW025CB BKN030 TX22/1412Z TN15/1504Z